Terminal Aerodrome Forecast
Issued by NWS Spokane, WA

Home | Current Version | Previous Version | Text Only | Print | Product List | Glossary On
Versions: 1 2 3 4 5 6 7 8 9 10 11 12 13
000
FTUS46 KOTX 271129
TAFLWS
TAF
KLWS 271129Z 2712/2812 11005KT P6SM FEW130 SCT200
     FM271800 34008KT P6SM SCT100 BKN150
     FM280100 30010KT P6SM FEW080 FEW150
     FM280500 20005KT P6SM FEW070=

USA.gov is the U.S. government's official web portal to all federal, state and local government web resources and services.